sensor_id;sensor_type;location;lat;lon;timestamp;temperature;humidity
70851;DHT22;58475;49.662;9.636;2022-08-19T00:01:34;21.42;72.09
70851;DHT22;58475;49.662;9.636;2022-08-19T00:04:04;21.34;72.42
70851;DHT22;58475;49.662;9.636;2022-08-19T00:06:30;21.31;72.39
70851;DHT22;58475;49.662;9.636;2022-08-19T00:08:57;21.24;72.59
70851;DHT22;58475;49.662;9.636;2022-08-19T00:11:23;21.19;72.53
70851;DHT22;58475;49.662;9.636;2022-08-19T00:13:49;21.17;72.59
70851;DHT22;58475;49.662;9.636;2022-08-19T00:16:16;21.17;72.91
70851;DHT22;58475;49.662;9.636;2022-08-19T00:18:44;21.15;72.87
70851;DHT22;58475;49.662;9.636;2022-08-19T00:21:10;21.10;72.99
70851;DHT22;58475;49.662;9.636;2022-08-19T00:23:36;21.11;72.91
70851;DHT22;58475;49.662;9.636;2022-08-19T00:26:03;21.15;72.79
70851;DHT22;58475;49.662;9.636;2022-08-19T00:28:28;21.15;72.66
70851;DHT22;58475;49.662;9.636;2022-08-19T00:30:54;21.13;72.59
70851;DHT22;58475;49.662;9.636;2022-08-19T00:33:20;21.14;72.75
70851;DHT22;58475;49.662;9.636;2022-08-19T00:35:46;21.11;72.64
70851;DHT22;58475;49.662;9.636;2022-08-19T00:38:11;20.92;73.14
70851;DHT22;58475;49.662;9.636;2022-08-19T00:40:37;20.97;73.05
70851;DHT22;58475;49.662;9.636;2022-08-19T00:43:10;20.97;72.67
70851;DHT22;58475;49.662;9.636;2022-08-19T00:45:39;20.90;72.97
70851;DHT22;58475;49.662;9.636;2022-08-19T00:48:07;20.83;73.08
70851;DHT22;58475;49.662;9.636;2022-08-19T00:50:34;20.89;73.10
70851;DHT22;58475;49.662;9.636;2022-08-19T00:53:00;20.80;73.46
70851;DHT22;58475;49.662;9.636;2022-08-19T00:55:30;20.80;73.54
70851;DHT22;58475;49.662;9.636;2022-08-19T00:58:00;20.86;73.49
70851;DHT22;58475;49.662;9.636;2022-08-19T01:00:27;20.87;72.92
70851;DHT22;58475;49.662;9.636;2022-08-19T01:02:53;20.87;73.27
70851;DHT22;58475;49.662;9.636;2022-08-19T01:05:26;20.92;73.06
70851;DHT22;58475;49.662;9.636;2022-08-19T01:07:53;20.92;72.86
70851;DHT22;58475;49.662;9.636;2022-08-19T01:10:23;20.86;73.12
70851;DHT22;58475;49.662;9.636;2022-08-19T01:12:49;20.84;73.08
70851;DHT22;58475;49.662;9.636;2022-08-19T01:15:18;20.72;73.69
70851;DHT22;58475;49.662;9.636;2022-08-19T01:17:45;20.71;73.56
70851;DHT22;58475;49.662;9.636;2022-08-19T01:20:18;20.62;74.02
70851;DHT22;58475;49.662;9.636;2022-08-19T01:22:52;20.59;73.83
70851;DHT22;58475;49.662;9.636;2022-08-19T01:25:23;20.59;73.89
70851;DHT22;58475;49.662;9.636;2022-08-19T01:27:51;20.62;73.91
70851;DHT22;58475;49.662;9.636;2022-08-19T01:30:21;20.57;73.89
70851;DHT22;58475;49.662;9.636;2022-08-19T01:32:47;20.34;74.98
70851;DHT22;58475;49.662;9.636;2022-08-19T01:35:13;20.21;75.50
70851;DHT22;58475;49.662;9.636;2022-08-19T01:38:04;20.11;75.68
70851;DHT22;58475;49.662;9.636;2022-08-19T01:40:34;20.08;75.76
70851;DHT22;58475;49.662;9.636;2022-08-19T01:43:01;20.17;75.76
70851;DHT22;58475;49.662;9.636;2022-08-19T01:45:30;20.07;75.86
70851;DHT22;58475;49.662;9.636;2022-08-19T01:47:56;20.11;75.80
70851;DHT22;58475;49.662;9.636;2022-08-19T01:50:21;20.11;75.87
70851;DHT22;58475;49.662;9.636;2022-08-19T01:52:47;20.21;76.06
70851;DHT22;58475;49.662;9.636;2022-08-19T01:55:16;20.21;75.97
70851;DHT22;58475;49.662;9.636;2022-08-19T01:57:46;20.20;76.40
70851;DHT22;58475;49.662;9.636;2022-08-19T02:00:14;20.17;76.30
70851;DHT22;58475;49.662;9.636;2022-08-19T02:02:41;20.08;76.18
70851;DHT22;58475;49.662;9.636;2022-08-19T02:05:08;20.14;76.19
70851;DHT22;58475;49.662;9.636;2022-08-19T02:07:34;20.04;76.77
70851;DHT22;58475;49.662;9.636;2022-08-19T02:10:03;20.25;75.27
70851;DHT22;58475;49.662;9.636;2022-08-19T02:12:29;20.24;75.96
70851;DHT22;58475;49.662;9.636;2022-08-19T02:14:54;20.14;76.32
70851;DHT22;58475;49.662;9.636;2022-08-19T02:17:19;20.24;75.46
70851;DHT22;58475;49.662;9.636;2022-08-19T02:19:45;20.15;75.94
70851;DHT22;58475;49.662;9.636;2022-08-19T02:22:10;20.10;75.86
70851;DHT22;58475;49.662;9.636;2022-08-19T02:24:36;20.10;76.06
70851;DHT22;58475;49.662;9.636;2022-08-19T02:27:01;20.21;75.64
70851;DHT22;58475;49.662;9.636;2022-08-19T02:29:27;20.13;75.97
70851;DHT22;58475;49.662;9.636;2022-08-19T02:31:52;20.03;76.25
70851;DHT22;58475;49.662;9.636;2022-08-19T02:34:18;20.08;76.23
70851;DHT22;58475;49.662;9.636;2022-08-19T02:36:44;20.05;76.08
70851;DHT22;58475;49.662;9.636;2022-08-19T02:39:10;20.01;76.42
70851;DHT22;58475;49.662;9.636;2022-08-19T02:41:35;20.01;76.53
70851;DHT22;58475;49.662;9.636;2022-08-19T02:44:02;19.90;77.21
70851;DHT22;58475;49.662;9.636;2022-08-19T02:46:31;19.77;77.23
70851;DHT22;58475;49.662;9.636;2022-08-19T02:49:01;19.83;76.95
70851;DHT22;58475;49.662;9.636;2022-08-19T02:51:33;19.75;77.63
70851;DHT22;58475;49.662;9.636;2022-08-19T02:54:00;19.77;77.49
70851;DHT22;58475;49.662;9.636;2022-08-19T02:56:25;19.69;78.16
70851;DHT22;58475;49.662;9.636;2022-08-19T02:58:53;19.73;78.31
70851;DHT22;58475;49.662;9.636;2022-08-19T03:01:39;19.73;77.58
70851;DHT22;58475;49.662;9.636;2022-08-19T03:04:08;19.67;77.65
70851;DHT22;58475;49.662;9.636;2022-08-19T03:06:37;19.56;78.17
70851;DHT22;58475;49.662;9.636;2022-08-19T03:09:03;19.57;78.19
70851;DHT22;58475;49.662;9.636;2022-08-19T03:11:31;19.54;78.46
70851;DHT22;58475;49.662;9.636;2022-08-19T03:13:57;19.52;78.72
70851;DHT22;58475;49.662;9.636;2022-08-19T03:16:25;19.42;78.98
70851;DHT22;58475;49.662;9.636;2022-08-19T03:18:51;19.25;79.49
70851;DHT22;58475;49.662;9.636;2022-08-19T03:21:21;19.30;79.51
70851;DHT22;58475;49.662;9.636;2022-08-19T03:23:47;19.19;79.30
70851;DHT22;58475;49.662;9.636;2022-08-19T03:26:12;19.15;80.03
70851;DHT22;58475;49.662;9.636;2022-08-19T03:28:39;19.18;79.92
70851;DHT22;58475;49.662;9.636;2022-08-19T03:31:10;19.26;79.42
70851;DHT22;58475;49.662;9.636;2022-08-19T03:33:36;19.23;79.78
70851;DHT22;58475;49.662;9.636;2022-08-19T03:36:07;19.32;79.81
70851;DHT22;58475;49.662;9.636;2022-08-19T03:38:39;19.30;79.29
70851;DHT22;58475;49.662;9.636;2022-08-19T03:41:08;19.30;79.49
70851;DHT22;58475;49.662;9.636;2022-08-19T03:43:37;19.15;79.81
70851;DHT22;58475;49.662;9.636;2022-08-19T03:46:06;19.23;79.74
70851;DHT22;58475;49.662;9.636;2022-08-19T03:48:33;19.22;79.95
70851;DHT22;58475;49.662;9.636;2022-08-19T03:50:58;19.19;80.31
70851;DHT22;58475;49.662;9.636;2022-08-19T03:53:26;19.05;79.87
70851;DHT22;58475;49.662;9.636;2022-08-19T03:55:52;18.99;80.23
70851;DHT22;58475;49.662;9.636;2022-08-19T03:58:19;19.09;80.12
70851;DHT22;58475;49.662;9.636;2022-08-19T04:00:44;18.98;80.29
70851;DHT22;58475;49.662;9.636;2022-08-19T04:03:10;18.88;80.63
70851;DHT22;58475;49.662;9.636;2022-08-19T04:05:35;18.78;80.85
70851;DHT22;58475;49.662;9.636;2022-08-19T04:08:01;18.63;81.33
70851;DHT22;58475;49.662;9.636;2022-08-19T04:10:27;18.87;80.81
70851;DHT22;58475;49.662;9.636;2022-08-19T04:12:53;18.78;81.34
70851;DHT22;58475;49.662;9.636;2022-08-19T04:15:18;18.72;81.31
70851;DHT22;58475;49.662;9.636;2022-08-19T04:17:45;18.79;80.74
70851;DHT22;58475;49.662;9.636;2022-08-19T04:20:11;18.78;80.95
70851;DHT22;58475;49.662;9.636;2022-08-19T04:22:37;18.74;80.97
70851;DHT22;58475;49.662;9.636;2022-08-19T04:25:02;18.84;80.95
70851;DHT22;58475;49.662;9.636;2022-08-19T04:27:28;18.85;80.97
70851;DHT22;58475;49.662;9.636;2022-08-19T04:29:54;18.87;80.84
70851;DHT22;58475;49.662;9.636;2022-08-19T04:32:20;18.94;80.62
70851;DHT22;58475;49.662;9.636;2022-08-19T04:34:46;19.01;80.55
70851;DHT22;58475;49.662;9.636;2022-08-19T04:37:11;18.88;81.94
70851;DHT22;58475;49.662;9.636;2022-08-19T04:39:39;18.98;81.04
70851;DHT22;58475;49.662;9.636;2022-08-19T04:42:23;18.95;80.96
70851;DHT22;58475;49.662;9.636;2022-08-19T04:45:05;19.11;80.84
70851;DHT22;58475;49.662;9.636;2022-08-19T04:47:31;19.16;80.55
70851;DHT22;58475;49.662;9.636;2022-08-19T04:49:57;19.25;80.10
70851;DHT22;58475;49.662;9.636;2022-08-19T04:52:22;19.27;79.75
70851;DHT22;58475;49.662;9.636;2022-08-19T04:54:48;19.25;79.89
70851;DHT22;58475;49.662;9.636;2022-08-19T04:57:13;19.30;79.83
70851;DHT22;58475;49.662;9.636;2022-08-19T04:59:39;19.26;79.49
70851;DHT22;58475;49.662;9.636;2022-08-19T05:02:07;19.15;79.98
70851;DHT22;58475;49.662;9.636;2022-08-19T05:04:32;19.26;80.16
70851;DHT22;58475;49.662;9.636;2022-08-19T05:06:59;19.33;79.89
70851;DHT22;58475;49.662;9.636;2022-08-19T05:09:25;19.33;79.72
70851;DHT22;58475;49.662;9.636;2022-08-19T05:11:51;19.33;79.99
70851;DHT22;58475;49.662;9.636;2022-08-19T05:14:18;19.40;79.35
70851;DHT22;58475;49.662;9.636;2022-08-19T05:16:46;19.43;79.49
70851;DHT22;58475;49.662;9.636;2022-08-19T05:19:11;19.49;79.57
70851;DHT22;58475;49.662;9.636;2022-08-19T05:21:55;19.57;79.39
70851;DHT22;58475;49.662;9.636;2022-08-19T05:24:39;19.64;79.65
70851;DHT22;58475;49.662;9.636;2022-08-19T05:27:05;19.69;79.28
70851;DHT22;58475;49.662;9.636;2022-08-19T05:29:31;19.80;79.00
70851;DHT22;58475;49.662;9.636;2022-08-19T05:31:57;19.97;78.99
70851;DHT22;58475;49.662;9.636;2022-08-19T05:34:24;20.01;78.66
70851;DHT22;58475;49.662;9.636;2022-08-19T05:36:53;20.07;78.86
70851;DHT22;58475;49.662;9.636;2022-08-19T05:39:21;20.04;78.17
70851;DHT22;58475;49.662;9.636;2022-08-19T05:41:52;20.01;78.39
70851;DHT22;58475;49.662;9.636;2022-08-19T05:44:19;20.08;78.81
70851;DHT22;58475;49.662;9.636;2022-08-19T05:46:46;20.18;78.34
70851;DHT22;58475;49.662;9.636;2022-08-19T05:49:13;20.31;77.58
70851;DHT22;58475;49.662;9.636;2022-08-19T05:51:39;20.43;77.32
70851;DHT22;58475;49.662;9.636;2022-08-19T05:54:05;20.45;77.31
70851;DHT22;58475;49.662;9.636;2022-08-19T05:56:31;20.59;77.02
70851;DHT22;58475;49.662;9.636;2022-08-19T05:58:57;20.66;77.10
70851;DHT22;58475;49.662;9.636;2022-08-19T06:01:24;20.77;76.31
70851;DHT22;58475;49.662;9.636;2022-08-19T06:03:50;20.89;76.38
70851;DHT22;58475;49.662;9.636;2022-08-19T06:06:16;20.89;75.84
70851;DHT22;58475;49.662;9.636;2022-08-19T06:08:42;21.02;76.10
70851;DHT22;58475;49.662;9.636;2022-08-19T06:11:18;21.00;76.20
70851;DHT22;58475;49.662;9.636;2022-08-19T06:13:44;20.92;76.19
70851;DHT22;58475;49.662;9.636;2022-08-19T06:16:13;20.92;76.01
70851;DHT22;58475;49.662;9.636;2022-08-19T06:18:52;20.90;76.30
70851;DHT22;58475;49.662;9.636;2022-08-19T06:21:25;20.99;76.43
70851;DHT22;58475;49.662;9.636;2022-08-19T06:23:52;21.07;76.18
70851;DHT22;58475;49.662;9.636;2022-08-19T06:26:20;21.13;75.38
70851;DHT22;58475;49.662;9.636;2022-08-19T06:28:46;21.13;75.29
70851;DHT22;58475;49.662;9.636;2022-08-19T06:31:13;21.11;74.83
70851;DHT22;58475;49.662;9.636;2022-08-19T06:33:40;21.11;75.40
70851;DHT22;58475;49.662;9.636;2022-08-19T06:36:06;21.07;76.07
70851;DHT22;58475;49.662;9.636;2022-08-19T06:38:32;20.99;76.10
70851;DHT22;58475;49.662;9.636;2022-08-19T06:41:04;21.06;75.52
70851;DHT22;58475;49.662;9.636;2022-08-19T06:43:30;21.14;74.95
70851;DHT22;58475;49.662;9.636;2022-08-19T06:45:55;21.06;75.06
70851;DHT22;58475;49.662;9.636;2022-08-19T06:48:22;21.15;76.11
70851;DHT22;58475;49.662;9.636;2022-08-19T06:50:47;21.19;75.11
70851;DHT22;58475;49.662;9.636;2022-08-19T06:53:15;21.21;75.70
70851;DHT22;58475;49.662;9.636;2022-08-19T06:55:40;21.26;75.21
70851;DHT22;58475;49.662;9.636;2022-08-19T06:58:06;21.34;74.99
70851;DHT22;58475;49.662;9.636;2022-08-19T07:00:32;21.41;75.24
70851;DHT22;58475;49.662;9.636;2022-08-19T07:02:57;21.55;75.25
70851;DHT22;58475;49.662;9.636;2022-08-19T07:05:23;21.62;75.46
70851;DHT22;58475;49.662;9.636;2022-08-19T07:07:49;21.78;74.03
70851;DHT22;58475;49.662;9.636;2022-08-19T07:10:14;21.89;74.14
70851;DHT22;58475;49.662;9.636;2022-08-19T07:12:40;22.14;73.17
70851;DHT22;58475;49.662;9.636;2022-08-19T07:15:06;22.05;72.38
70851;DHT22;58475;49.662;9.636;2022-08-19T07:17:34;22.39;71.53
70851;DHT22;58475;49.662;9.636;2022-08-19T07:20:02;22.87;71.14
70851;DHT22;58475;49.662;9.636;2022-08-19T07:22:28;23.22;70.06
70851;DHT22;58475;49.662;9.636;2022-08-19T07:24:53;23.97;68.25
70851;DHT22;58475;49.662;9.636;2022-08-19T07:27:19;24.08;66.96
70851;DHT22;58475;49.662;9.636;2022-08-19T07:29:44;24.24;66.64
70851;DHT22;58475;49.662;9.636;2022-08-19T07:32:11;24.08;67.94
70851;DHT22;58475;49.662;9.636;2022-08-19T07:34:36;24.25;67.47
70851;DHT22;58475;49.662;9.636;2022-08-19T07:37:04;24.62;66.27
70851;DHT22;58475;49.662;9.636;2022-08-19T07:39:33;24.93;64.98
70851;DHT22;58475;49.662;9.636;2022-08-19T07:42:01;24.55;65.92
70851;DHT22;58475;49.662;9.636;2022-08-19T07:44:27;24.10;66.96
70851;DHT22;58475;49.662;9.636;2022-08-19T07:46:55;24.14;67.40
70851;DHT22;58475;49.662;9.636;2022-08-19T07:49:22;24.57;65.81
70851;DHT22;58475;49.662;9.636;2022-08-19T07:51:56;24.48;66.25
70851;DHT22;58475;49.662;9.636;2022-08-19T07:54:23;24.44;66.66
70851;DHT22;58475;49.662;9.636;2022-08-19T07:56:49;24.31;66.53
70851;DHT22;58475;49.662;9.636;2022-08-19T07:59:17;24.24;67.33
70851;DHT22;58475;49.662;9.636;2022-08-19T08:01:44;24.32;66.70
70851;DHT22;58475;49.662;9.636;2022-08-19T08:04:09;24.35;67.43
70851;DHT22;58475;49.662;9.636;2022-08-19T08:06:53;24.16;67.78
70851;DHT22;58475;49.662;9.636;2022-08-19T08:09:41;24.11;68.16
70851;DHT22;58475;49.662;9.636;2022-08-19T08:12:14;24.18;67.63
70851;DHT22;58475;49.662;9.636;2022-08-19T08:14:51;24.08;67.73
70851;DHT22;58475;49.662;9.636;2022-08-19T08:17:22;23.97;68.15
70851;DHT22;58475;49.662;9.636;2022-08-19T08:19:48;23.96;68.34
70851;DHT22;58475;49.662;9.636;2022-08-19T08:22:18;24.11;68.13
70851;DHT22;58475;49.662;9.636;2022-08-19T08:25:04;24.00;68.07
70851;DHT22;58475;49.662;9.636;2022-08-19T08:27:30;24.07;68.39
70851;DHT22;58475;49.662;9.636;2022-08-19T08:29:57;24.14;68.24
70851;DHT22;58475;49.662;9.636;2022-08-19T08:32:22;24.07;68.80
70851;DHT22;58475;49.662;9.636;2022-08-19T08:34:51;23.90;68.36
70851;DHT22;58475;49.662;9.636;2022-08-19T08:37:17;23.80;68.35
70851;DHT22;58475;49.662;9.636;2022-08-19T08:39:42;23.79;68.93
70851;DHT22;58475;49.662;9.636;2022-08-19T08:42:24;23.76;68.99
70851;DHT22;58475;49.662;9.636;2022-08-19T08:44:59;23.62;68.89
70851;DHT22;58475;49.662;9.636;2022-08-19T08:47:29;23.50;68.86
70851;DHT22;58475;49.662;9.636;2022-08-19T08:50:05;23.32;69.32
70851;DHT22;58475;49.662;9.636;2022-08-19T08:52:39;23.48;69.07
70851;DHT22;58475;49.662;9.636;2022-08-19T08:55:12;23.67;68.66
70851;DHT22;58475;49.662;9.636;2022-08-19T09:00:26;23.79;67.98
70851;DHT22;58475;49.662;9.636;2022-08-19T09:02:54;24.01;68.36
70851;DHT22;58475;49.662;9.636;2022-08-19T09:05:21;24.11;67.49
70851;DHT22;58475;49.662;9.636;2022-08-19T09:08:04;24.25;65.68
70851;DHT22;58475;49.662;9.636;2022-08-19T09:10:37;24.31;67.56
70851;DHT22;58475;49.662;9.636;2022-08-19T09:16:07;24.73;65.19
70851;DHT22;58475;49.662;9.636;2022-08-19T09:18:45;24.88;64.13
70851;DHT22;58475;49.662;9.636;2022-08-19T09:21:13;24.99;64.68
70851;DHT22;58475;49.662;9.636;2022-08-19T09:23:39;24.86;64.50
70851;DHT22;58475;49.662;9.636;2022-08-19T09:26:09;24.72;64.52
70851;DHT22;58475;49.662;9.636;2022-08-19T09:28:41;24.73;64.31
70851;DHT22;58475;49.662;9.636;2022-08-19T09:31:10;24.37;65.18
70851;DHT22;58475;49.662;9.636;2022-08-19T09:33:36;24.62;64.71
70851;DHT22;58475;49.662;9.636;2022-08-19T09:36:10;24.45;65.19
70851;DHT22;58475;49.662;9.636;2022-08-19T09:38:37;24.44;64.97
70851;DHT22;58475;49.662;9.636;2022-08-19T09:41:07;24.51;64.95
70851;DHT22;58475;49.662;9.636;2022-08-19T09:43:33;24.52;63.54
70851;DHT22;58475;49.662;9.636;2022-08-19T09:46:03;24.42;64.26
70851;DHT22;58475;49.662;9.636;2022-08-19T09:48:31;24.34;64.82
70851;DHT22;58475;49.662;9.636;2022-08-19T09:51:12;24.34;64.84
70851;DHT22;58475;49.662;9.636;2022-08-19T09:53:42;24.35;64.59
70851;DHT22;58475;49.662;9.636;2022-08-19T09:56:08;24.16;63.99
70851;DHT22;58475;49.662;9.636;2022-08-19T09:58:35;24.17;64.46
70851;DHT22;58475;49.662;9.636;2022-08-19T10:01:01;24.17;64.44
70851;DHT22;58475;49.662;9.636;2022-08-19T10:03:29;24.08;63.11
70851;DHT22;58475;49.662;9.636;2022-08-19T10:05:56;24.22;63.87
70851;DHT22;58475;49.662;9.636;2022-08-19T10:08:29;24.24;63.95
70851;DHT22;58475;49.662;9.636;2022-08-19T10:10:55;24.31;62.29
70851;DHT22;58475;49.662;9.636;2022-08-19T10:13:23;24.58;62.08
70851;DHT22;58475;49.662;9.636;2022-08-19T10:15:51;24.71;61.83
70851;DHT22;58475;49.662;9.636;2022-08-19T10:18:18;24.80;61.79
70851;DHT22;58475;49.662;9.636;2022-08-19T10:20:44;24.85;61.49
70851;DHT22;58475;49.662;9.636;2022-08-19T10:23:11;24.78;61.78
70851;DHT22;58475;49.662;9.636;2022-08-19T10:25:37;24.85;61.54
70851;DHT22;58475;49.662;9.636;2022-08-19T10:28:03;24.80;62.29
70851;DHT22;58475;49.662;9.636;2022-08-19T10:30:29;24.55;62.69
70851;DHT22;58475;49.662;9.636;2022-08-19T10:32:55;24.51;62.65
70851;DHT22;58475;49.662;9.636;2022-08-19T10:35:20;24.57;62.61
70851;DHT22;58475;49.662;9.636;2022-08-19T10:37:45;24.67;62.61
70851;DHT22;58475;49.662;9.636;2022-08-19T10:40:11;24.76;62.01
70851;DHT22;58475;49.662;9.636;2022-08-19T10:42:37;24.97;62.74
70851;DHT22;58475;49.662;9.636;2022-08-19T10:45:04;25.09;62.17
70851;DHT22;58475;49.662;9.636;2022-08-19T10:47:31;25.43;62.06
70851;DHT22;58475;49.662;9.636;2022-08-19T10:49:57;25.96;60.45
70851;DHT22;58475;49.662;9.636;2022-08-19T10:52:46;27.08;58.38
70851;DHT22;58475;49.662;9.636;2022-08-19T10:55:11;26.42;58.26
70851;DHT22;58475;49.662;9.636;2022-08-19T10:57:55;26.59;59.09
70851;DHT22;58475;49.662;9.636;2022-08-19T11:00:22;27.10;57.96
70851;DHT22;58475;49.662;9.636;2022-08-19T11:02:48;26.94;56.95
70851;DHT22;58475;49.662;9.636;2022-08-19T11:05:14;27.63;55.45
70851;DHT22;58475;49.662;9.636;2022-08-19T11:07:41;27.81;55.13
70851;DHT22;58475;49.662;9.636;2022-08-19T11:10:09;27.52;55.45
70851;DHT22;58475;49.662;9.636;2022-08-19T11:12:37;27.42;55.72
70851;DHT22;58475;49.662;9.636;2022-08-19T11:15:05;27.31;54.06
70851;DHT22;58475;49.662;9.636;2022-08-19T11:17:32;27.10;53.99
70851;DHT22;58475;49.662;9.636;2022-08-19T11:19:58;27.16;53.82
70851;DHT22;58475;49.662;9.636;2022-08-19T11:22:26;27.42;53.93
70851;DHT22;58475;49.662;9.636;2022-08-19T11:24:51;27.37;53.93
70851;DHT22;58475;49.662;9.636;2022-08-19T11:27:17;26.97;54.27
70851;DHT22;58475;49.662;9.636;2022-08-19T11:29:42;27.55;53.48
70851;DHT22;58475;49.662;9.636;2022-08-19T11:32:09;27.69;52.42
70851;DHT22;58475;49.662;9.636;2022-08-19T11:34:35;27.35;52.78
70851;DHT22;58475;49.662;9.636;2022-08-19T11:37:03;27.31;52.39
70851;DHT22;58475;49.662;9.636;2022-08-19T11:39:30;27.23;52.18
70851;DHT22;58475;49.662;9.636;2022-08-19T11:41:58;26.61;53.93
70851;DHT22;58475;49.662;9.636;2022-08-19T11:44:24;26.87;53.09
70851;DHT22;58475;49.662;9.636;2022-08-19T11:46:50;27.04;52.27
70851;DHT22;58475;49.662;9.636;2022-08-19T11:49:18;27.10;52.40
70851;DHT22;58475;49.662;9.636;2022-08-19T11:51:45;26.91;52.60
70851;DHT22;58475;49.662;9.636;2022-08-19T11:54:12;27.08;51.76
70851;DHT22;58475;49.662;9.636;2022-08-19T11:56:38;26.74;51.72
70851;DHT22;58475;49.662;9.636;2022-08-19T11:59:03;26.61;52.00
70851;DHT22;58475;49.662;9.636;2022-08-19T12:01:30;26.79;52.20
70851;DHT22;58475;49.662;9.636;2022-08-19T12:03:57;26.61;52.37
70851;DHT22;58475;49.662;9.636;2022-08-19T12:06:25;26.46;52.52
70851;DHT22;58475;49.662;9.636;2022-08-19T12:08:59;26.66;52.52
70851;DHT22;58475;49.662;9.636;2022-08-19T12:11:25;27.10;52.21
70851;DHT22;58475;49.662;9.636;2022-08-19T12:13:51;26.82;52.13
70851;DHT22;58475;49.662;9.636;2022-08-19T12:16:21;26.87;52.17
70851;DHT22;58475;49.662;9.636;2022-08-19T12:18:48;26.88;52.35
70851;DHT22;58475;49.662;9.636;2022-08-19T12:21:17;26.84;52.32
70851;DHT22;58475;49.662;9.636;2022-08-19T12:23:43;27.23;53.29
70851;DHT22;58475;49.662;9.636;2022-08-19T12:26:11;27.41;51.57
70851;DHT22;58475;49.662;9.636;2022-08-19T12:28:37;27.05;50.94
70851;DHT22;58475;49.662;9.636;2022-08-19T12:31:02;26.98;52.59
70851;DHT22;58475;49.662;9.636;2022-08-19T12:33:28;26.90;52.45
70851;DHT22;58475;49.662;9.636;2022-08-19T12:35:54;26.70;52.66
70851;DHT22;58475;49.662;9.636;2022-08-19T12:38:20;27.01;52.22
70851;DHT22;58475;49.662;9.636;2022-08-19T12:40:49;27.34;52.08
70851;DHT22;58475;49.662;9.636;2022-08-19T12:43:16;27.32;51.89
70851;DHT22;58475;49.662;9.636;2022-08-19T12:45:42;27.20;50.80
70851;DHT22;58475;49.662;9.636;2022-08-19T12:48:09;26.63;52.89
70851;DHT22;58475;49.662;9.636;2022-08-19T12:50:34;26.57;52.94
70851;DHT22;58475;49.662;9.636;2022-08-19T12:52:59;26.55;53.51
70851;DHT22;58475;49.662;9.636;2022-08-19T12:55:25;26.50;54.11
70851;DHT22;58475;49.662;9.636;2022-08-19T12:57:53;26.22;53.88
70851;DHT22;58475;49.662;9.636;2022-08-19T13:00:21;26.59;53.98
70851;DHT22;58475;49.662;9.636;2022-08-19T13:02:49;26.31;53.84
70851;DHT22;58475;49.662;9.636;2022-08-19T13:05:18;26.29;54.18
70851;DHT22;58475;49.662;9.636;2022-08-19T13:07:46;26.56;54.31
70851;DHT22;58475;49.662;9.636;2022-08-19T13:10:14;26.83;53.25
70851;DHT22;58475;49.662;9.636;2022-08-19T13:12:45;27.12;53.19
70851;DHT22;58475;49.662;9.636;2022-08-19T13:15:11;27.25;52.76
70851;DHT22;58475;49.662;9.636;2022-08-19T13:17:38;27.48;52.29
70851;DHT22;58475;49.662;9.636;2022-08-19T13:20:04;27.46;51.38
70851;DHT22;58475;49.662;9.636;2022-08-19T13:22:32;27.42;51.45
70851;DHT22;58475;49.662;9.636;2022-08-19T13:24:58;27.54;52.38
70851;DHT22;58475;49.662;9.636;2022-08-19T13:27:23;27.92;51.33
70851;DHT22;58475;49.662;9.636;2022-08-19T13:29:48;29.25;49.29
70851;DHT22;58475;49.662;9.636;2022-08-19T13:32:32;29.13;47.94
70851;DHT22;58475;49.662;9.636;2022-08-19T13:35:17;28.83;48.08
70851;DHT22;58475;49.662;9.636;2022-08-19T13:37:43;29.33;46.86
70851;DHT22;58475;49.662;9.636;2022-08-19T13:40:22;30.12;45.88
70851;DHT22;58475;49.662;9.636;2022-08-19T13:42:50;29.61;47.39
70851;DHT22;58475;49.662;9.636;2022-08-19T13:45:21;29.20;48.57
70851;DHT22;58475;49.662;9.636;2022-08-19T13:47:47;28.82;48.89
70851;DHT22;58475;49.662;9.636;2022-08-19T13:50:19;28.50;48.50
70851;DHT22;58475;49.662;9.636;2022-08-19T13:52:45;28.65;49.30
70851;DHT22;58475;49.662;9.636;2022-08-19T13:55:12;28.45;48.79
70851;DHT22;58475;49.662;9.636;2022-08-19T13:57:37;28.31;49.55
70851;DHT22;58475;49.662;9.636;2022-08-19T14:00:13;28.27;48.92
70851;DHT22;58475;49.662;9.636;2022-08-19T14:02:39;28.37;49.60
70851;DHT22;58475;49.662;9.636;2022-08-19T14:05:07;28.27;49.27
70851;DHT22;58475;49.662;9.636;2022-08-19T14:07:32;28.34;49.27
70851;DHT22;58475;49.662;9.636;2022-08-19T14:09:58;28.20;48.57
70851;DHT22;58475;49.662;9.636;2022-08-19T14:12:23;27.96;49.38
70851;DHT22;58475;49.662;9.636;2022-08-19T14:14:48;27.86;50.74
70851;DHT22;58475;49.662;9.636;2022-08-19T14:17:14;28.03;49.96
70851;DHT22;58475;49.662;9.636;2022-08-19T14:19:40;27.97;50.04
70851;DHT22;58475;49.662;9.636;2022-08-19T14:22:06;28.02;49.43
70851;DHT22;58475;49.662;9.636;2022-08-19T14:24:31;28.07;49.42
70851;DHT22;58475;49.662;9.636;2022-08-19T14:27:00;28.17;49.07
70851;DHT22;58475;49.662;9.636;2022-08-19T14:29:25;28.21;48.66
70851;DHT22;58475;49.662;9.636;2022-08-19T14:31:54;28.23;48.59
70851;DHT22;58475;49.662;9.636;2022-08-19T14:34:19;28.00;48.61
70851;DHT22;58475;49.662;9.636;2022-08-19T14:36:44;27.72;48.38
70851;DHT22;58475;49.662;9.636;2022-08-19T14:39:11;27.72;49.03
70851;DHT22;58475;49.662;9.636;2022-08-19T14:41:40;27.42;50.24
70851;DHT22;58475;49.662;9.636;2022-08-19T14:44:05;27.30;51.28
70851;DHT22;58475;49.662;9.636;2022-08-19T14:46:31;27.14;50.81
70851;DHT22;58475;49.662;9.636;2022-08-19T14:48:57;27.05;49.73
70851;DHT22;58475;49.662;9.636;2022-08-19T14:51:24;27.05;49.95
70851;DHT22;58475;49.662;9.636;2022-08-19T14:53:50;26.74;50.40
70851;DHT22;58475;49.662;9.636;2022-08-19T14:56:18;26.69;50.70
70851;DHT22;58475;49.662;9.636;2022-08-19T14:58:44;26.50;52.81
70851;DHT22;58475;49.662;9.636;2022-08-19T15:01:11;26.52;53.19
70851;DHT22;58475;49.662;9.636;2022-08-19T15:03:37;26.14;54.56
70851;DHT22;58475;49.662;9.636;2022-08-19T15:06:04;26.16;53.76
70851;DHT22;58475;49.662;9.636;2022-08-19T15:08:31;26.28;52.81
70851;DHT22;58475;49.662;9.636;2022-08-19T15:10:57;26.02;53.28
70851;DHT22;58475;49.662;9.636;2022-08-19T15:13:24;26.02;54.46
70851;DHT22;58475;49.662;9.636;2022-08-19T15:15:49;26.28;53.11
70851;DHT22;58475;49.662;9.636;2022-08-19T15:18:17;26.37;51.96
70851;DHT22;58475;49.662;9.636;2022-08-19T15:20:42;26.22;53.12
70851;DHT22;58475;49.662;9.636;2022-08-19T15:23:09;26.08;53.66
70851;DHT22;58475;49.662;9.636;2022-08-19T15:25:36;26.18;53.80
70851;DHT22;58475;49.662;9.636;2022-08-19T15:28:01;26.21;53.82
70851;DHT22;58475;49.662;9.636;2022-08-19T15:30:28;26.29;52.92
70851;DHT22;58475;49.662;9.636;2022-08-19T15:32:55;26.11;54.96
70851;DHT22;58475;49.662;9.636;2022-08-19T15:35:22;26.09;55.79
70851;DHT22;58475;49.662;9.636;2022-08-19T15:37:51;26.18;53.02
70851;DHT22;58475;49.662;9.636;2022-08-19T15:40:18;26.40;53.81